sensor_id;sensor_type;location;lat;lon;timestamp;pressure;altitude;pressure_sealevel;temperature;humidity
57859;BME280;49153;45.568;11.894;2023-01-05T00:01:44;102373.16;;;5.96;96.75
57859;BME280;49153;45.568;11.894;2023-01-05T00:04:10;102371.59;;;5.88;96.63
57859;BME280;49153;45.568;11.894;2023-01-05T00:06:36;102375.03;;;5.90;96.92
57859;BME280;49153;45.568;11.894;2023-01-05T00:09:02;102382.78;;;5.95;96.74
57859;BME280;49153;45.568;11.894;2023-01-05T00:11:27;102369.06;;;5.84;96.35
57859;BME280;49153;45.568;11.894;2023-01-05T00:14:19;102377.06;;;5.78;96.44
57859;BME280;49153;45.568;11.894;2023-01-05T00:17:03;102376.94;;;5.82;97.13
57859;BME280;49153;45.568;11.894;2023-01-05T00:19:48;102368.19;;;5.83;97.54
57859;BME280;49153;45.568;11.894;2023-01-05T00:22:35;102366.41;;;5.85;97.34
57859;BME280;49153;45.568;11.894;2023-01-05T00:27:32;102348.06;;;5.87;97.96
57859;BME280;49153;45.568;11.894;2023-01-05T00:29:59;102351.44;;;5.92;97.87
57859;BME280;49153;45.568;11.894;2023-01-05T00:32:26;102335.81;;;5.87;97.52
57859;BME280;49153;45.568;11.894;2023-01-05T00:34:54;102327.91;;;5.90;98.13
57859;BME280;49153;45.568;11.894;2023-01-05T00:37:21;102333.22;;;5.86;97.34
57859;BME280;49153;45.568;11.894;2023-01-05T00:39:47;102325.78;;;5.71;97.02
57859;BME280;49153;45.568;11.894;2023-01-05T00:42:12;102333.50;;;5.75;97.45
57859;BME280;49153;45.568;11.894;2023-01-05T00:44:38;102335.31;;;5.72;97.51
57859;BME280;49153;45.568;11.894;2023-01-05T00:47:03;102320.59;;;5.68;97.20
57859;BME280;49153;45.568;11.894;2023-01-05T00:49:29;102331.97;;;5.67;96.96
57859;BME280;49153;45.568;11.894;2023-01-05T00:51:55;102314.66;;;5.61;97.46
57859;BME280;49153;45.568;11.894;2023-01-05T00:54:20;102312.88;;;5.62;97.25
57859;BME280;49153;45.568;11.894;2023-01-05T00:56:46;102325.06;;;5.64;97.13
57859;BME280;49153;45.568;11.894;2023-01-05T00:59:14;102316.63;;;5.53;96.92
57859;BME280;49153;45.568;11.894;2023-01-05T01:01:39;102322.84;;;5.47;96.83
57859;BME280;49153;45.568;11.894;2023-01-05T01:04:05;102317.84;;;5.38;96.76
57859;BME280;49153;45.568;11.894;2023-01-05T01:06:30;102305.03;;;5.28;96.71
57859;BME280;49153;45.568;11.894;2023-01-05T01:08:57;102322.28;;;5.35;97.24
57859;BME280;49153;45.568;11.894;2023-01-05T01:11:22;102317.91;;;5.35;97.49
57859;BME280;49153;45.568;11.894;2023-01-05T01:13:48;102318.13;;;5.26;97.27
57859;BME280;49153;45.568;11.894;2023-01-05T01:16:14;102332.81;;;5.33;98.09
57859;BME280;49153;45.568;11.894;2023-01-05T01:18:40;102322.38;;;5.32;98.10
57859;BME280;49153;45.568;11.894;2023-01-05T01:21:06;102328.34;;;5.37;97.96
57859;BME280;49153;45.568;11.894;2023-01-05T01:23:32;102330.09;;;5.36;98.15
57859;BME280;49153;45.568;11.894;2023-01-05T01:26:02;102339.56;;;5.42;98.61
57859;BME280;49153;45.568;11.894;2023-01-05T01:28:28;102319.63;;;5.36;98.42
57859;BME280;49153;45.568;11.894;2023-01-05T01:30:53;102329.19;;;5.39;98.41
57859;BME280;49153;45.568;11.894;2023-01-05T01:33:19;102327.41;;;5.39;98.68
57859;BME280;49153;45.568;11.894;2023-01-05T01:35:44;102313.50;;;5.37;98.83
57859;BME280;49153;45.568;11.894;2023-01-05T01:38:10;102318.47;;;5.48;99.45
57859;BME280;49153;45.568;11.894;2023-01-05T01:40:40;102317.47;;;5.53;99.29
57859;BME280;49153;45.568;11.894;2023-01-05T01:46:06;102321.69;;;5.59;99.49
57859;BME280;49153;45.568;11.894;2023-01-05T01:48:33;102312.00;;;5.63;99.87
57859;BME280;49153;45.568;11.894;2023-01-05T01:51:02;102314.59;;;5.64;100.00
57859;BME280;49153;45.568;11.894;2023-01-05T01:53:36;102318.72;;;5.73;100.00
57859;BME280;49153;45.568;11.894;2023-01-05T01:56:05;102307.22;;;5.78;100.00
57859;BME280;49153;45.568;11.894;2023-01-05T01:58:31;102300.09;;;5.85;100.00
57859;BME280;49153;45.568;11.894;2023-01-05T02:00:57;102285.25;;;5.84;100.00
57859;BME280;49153;45.568;11.894;2023-01-05T02:03:27;102292.09;;;5.91;100.00
57859;BME280;49153;45.568;11.894;2023-01-05T02:05:53;102300.59;;;5.99;100.00
57859;BME280;49153;45.568;11.894;2023-01-05T02:08:19;102287.38;;;6.04;100.00
57859;BME280;49153;45.568;11.894;2023-01-05T02:14:09;102276.03;;;6.03;100.00
57859;BME280;49153;45.568;11.894;2023-01-05T02:31:13;102262.69;;;6.12;100.00
57859;BME280;49153;45.568;11.894;2023-01-05T02:36:26;102256.44;;;6.18;100.00
57859;BME280;49153;45.568;11.894;2023-01-05T02:41:35;102220.66;;;6.17;100.00
57859;BME280;49153;45.568;11.894;2023-01-05T02:44:01;102234.28;;;6.28;100.00
57859;BME280;49153;45.568;11.894;2023-01-05T02:46:28;102227.28;;;6.28;100.00
57859;BME280;49153;45.568;11.894;2023-01-05T02:48:55;102235.06;;;6.31;100.00
57859;BME280;49153;45.568;11.894;2023-01-05T02:51:26;102238.41;;;6.36;100.00
57859;BME280;49153;45.568;11.894;2023-01-05T02:54:00;102215.88;;;6.29;100.00
57859;BME280;49153;45.568;11.894;2023-01-05T02:56:37;102210.56;;;6.32;100.00
57859;BME280;49153;45.568;11.894;2023-01-05T03:01:33;102212.00;;;6.43;100.00
57859;BME280;49153;45.568;11.894;2023-01-05T03:04:05;102218.88;;;6.47;100.00
57859;BME280;49153;45.568;11.894;2023-01-05T03:06:47;102200.66;;;6.42;100.00
57859;BME280;49153;45.568;11.894;2023-01-05T03:09:16;102193.56;;;6.46;100.00
57859;BME280;49153;45.568;11.894;2023-01-05T03:11:56;102190.13;;;6.44;100.00
57859;BME280;49153;45.568;11.894;2023-01-05T03:14:47;102188.31;;;6.46;100.00
57859;BME280;49153;45.568;11.894;2023-01-05T03:17:21;102180.41;;;6.47;100.00
57859;BME280;49153;45.568;11.894;2023-01-05T03:19:49;102174.34;;;6.45;100.00
57859;BME280;49153;45.568;11.894;2023-01-05T03:22:26;102183.59;;;6.57;100.00
57859;BME280;49153;45.568;11.894;2023-01-05T03:25:11;102180.97;;;6.57;100.00
57859;BME280;49153;45.568;11.894;2023-01-05T03:27:56;102174.66;;;6.64;100.00
57859;BME280;49153;45.568;11.894;2023-01-05T03:31:03;102185.88;;;6.67;100.00
57859;BME280;49153;45.568;11.894;2023-01-05T03:33:58;102175.66;;;6.60;100.00
57859;BME280;49153;45.568;11.894;2023-01-05T03:36:52;102187.59;;;6.68;100.00
57859;BME280;49153;45.568;11.894;2023-01-05T03:39:21;102179.84;;;6.65;100.00
57859;BME280;49153;45.568;11.894;2023-01-05T03:41:51;102172.72;;;6.69;100.00
57859;BME280;49153;45.568;11.894;2023-01-05T03:44:17;102182.28;;;6.71;100.00
57859;BME280;49153;45.568;11.894;2023-01-05T03:46:42;102169.22;;;6.70;100.00
57859;BME280;49153;45.568;11.894;2023-01-05T03:49:08;102167.28;;;6.75;100.00
57859;BME280;49153;45.568;11.894;2023-01-05T03:51:34;102170.72;;;6.77;100.00
57859;BME280;49153;45.568;11.894;2023-01-05T03:53:59;102165.28;;;6.83;100.00
57859;BME280;49153;45.568;11.894;2023-01-05T03:56:24;102161.84;;;6.81;100.00
57859;BME280;49153;45.568;11.894;2023-01-05T03:58:50;102163.53;;;6.82;100.00
57859;BME280;49153;45.568;11.894;2023-01-05T04:01:15;102173.97;;;6.85;100.00
57859;BME280;49153;45.568;11.894;2023-01-05T04:03:41;102166.91;;;6.87;100.00
57859;BME280;49153;45.568;11.894;2023-01-05T04:06:06;102167.72;;;6.88;100.00
57859;BME280;49153;45.568;11.894;2023-01-05T04:08:32;102172.09;;;6.89;100.00
57859;BME280;49153;45.568;11.894;2023-01-05T04:11:12;102175.47;;;6.92;100.00
57859;BME280;49153;45.568;11.894;2023-01-05T04:13:38;102160.81;;;6.87;100.00
57859;BME280;49153;45.568;11.894;2023-01-05T04:16:04;102161.66;;;6.87;100.00
57859;BME280;49153;45.568;11.894;2023-01-05T04:18:29;102160.72;;;6.88;100.00
57859;BME280;49153;45.568;11.894;2023-01-05T04:20:55;102158.94;;;6.90;100.00
57859;BME280;49153;45.568;11.894;2023-01-05T04:23:20;102157.13;;;6.92;100.00
57859;BME280;49153;45.568;11.894;2023-01-05T04:25:46;102161.22;;;6.99;100.00
57859;BME280;49153;45.568;11.894;2023-01-05T04:28:12;102153.47;;;6.96;100.00
57859;BME280;49153;45.568;11.894;2023-01-05T04:30:37;102150.81;;;6.98;100.00
57859;BME280;49153;45.568;11.894;2023-01-05T04:33:02;102159.50;;;6.98;100.00
57859;BME280;49153;45.568;11.894;2023-01-05T04:35:28;102165.63;;;6.99;100.00
57859;BME280;49153;45.568;11.894;2023-01-05T04:37:53;102147.34;;;6.97;100.00
57859;BME280;49153;45.568;11.894;2023-01-05T04:40:19;102154.19;;;7.01;100.00
57859;BME280;49153;45.568;11.894;2023-01-05T04:42:45;102163.69;;;7.04;100.00
57859;BME280;49153;45.568;11.894;2023-01-05T04:45:11;102154.19;;;7.01;100.00
57859;BME280;49153;45.568;11.894;2023-01-05T04:47:37;102171.47;;;7.07;100.00
57859;BME280;49153;45.568;11.894;2023-01-05T04:50:02;102162.75;;;7.06;100.00
57859;BME280;49153;45.568;11.894;2023-01-05T04:52:28;102168.75;;;7.10;100.00
57859;BME280;49153;45.568;11.894;2023-01-05T04:54:53;102166.19;;;7.08;100.00
57859;BME280;49153;45.568;11.894;2023-01-05T04:57:20;102163.56;;;7.08;100.00
57859;BME280;49153;45.568;11.894;2023-01-05T04:59:46;102142.81;;;7.01;100.00
57859;BME280;49153;45.568;11.894;2023-01-05T05:02:11;102143.72;;;7.00;100.00
57859;BME280;49153;45.568;11.894;2023-01-05T05:04:36;102148.81;;;7.04;100.00
57859;BME280;49153;45.568;11.894;2023-01-05T05:07:02;102140.44;;;6.93;100.00
57859;BME280;49153;45.568;11.894;2023-01-05T05:09:27;102149.00;;;6.98;100.00
57859;BME280;49153;45.568;11.894;2023-01-05T05:11:53;102147.53;;;6.91;100.00
57859;BME280;49153;45.568;11.894;2023-01-05T05:14:18;102135.50;;;6.84;100.00
57859;BME280;49153;45.568;11.894;2023-01-05T05:16:43;102134.56;;;6.87;100.00
57859;BME280;49153;45.568;11.894;2023-01-05T05:19:09;102127.59;;;6.86;100.00
57859;BME280;49153;45.568;11.894;2023-01-05T05:21:35;102140.69;;;6.87;100.00
57859;BME280;49153;45.568;11.894;2023-01-05T05:24:00;102138.97;;;6.86;100.00
57859;BME280;49153;45.568;11.894;2023-01-05T05:26:26;102130.38;;;6.81;100.00
57859;BME280;49153;45.568;11.894;2023-01-05T05:28:51;102132.03;;;6.84;100.00
57859;BME280;49153;45.568;11.894;2023-01-05T05:31:16;102125.84;;;6.86;100.00
57859;BME280;49153;45.568;11.894;2023-01-05T05:33:42;102131.88;;;6.88;100.00
57859;BME280;49153;45.568;11.894;2023-01-05T05:36:07;102121.38;;;6.88;100.00
57859;BME280;49153;45.568;11.894;2023-01-05T05:38:33;102114.66;;;6.81;100.00
57859;BME280;49153;45.568;11.894;2023-01-05T05:40:58;102130.31;;;6.83;100.00
57859;BME280;49153;45.568;11.894;2023-01-05T05:43:24;102113.09;;;6.75;100.00
57859;BME280;49153;45.568;11.894;2023-01-05T05:45:49;102131.16;;;6.83;100.00
57859;BME280;49153;45.568;11.894;2023-01-05T05:48:14;102118.91;;;6.84;100.00
57859;BME280;49153;45.568;11.894;2023-01-05T05:50:40;102125.88;;;6.85;100.00
57859;BME280;49153;45.568;11.894;2023-01-05T05:53:05;102130.59;;;6.75;100.00
57859;BME280;49153;45.568;11.894;2023-01-05T05:55:31;102126.41;;;6.69;100.00
57859;BME280;49153;45.568;11.894;2023-01-05T05:57:58;102136.69;;;6.75;100.00
57859;BME280;49153;45.568;11.894;2023-01-05T06:00:24;102125.53;;;6.69;100.00
57859;BME280;49153;45.568;11.894;2023-01-05T06:02:49;102121.09;;;6.71;100.00
57859;BME280;49153;45.568;11.894;2023-01-05T06:05:15;102131.25;;;6.82;100.00
57859;BME280;49153;45.568;11.894;2023-01-05T06:07:40;102120.09;;;6.75;100.00
57859;BME280;49153;45.568;11.894;2023-01-05T06:10:06;102127.75;;;6.81;100.00
57859;BME280;49153;45.568;11.894;2023-01-05T06:12:32;102128.63;;;6.82;100.00
57859;BME280;49153;45.568;11.894;2023-01-05T06:14:57;102135.50;;;6.84;100.00
57859;BME280;49153;45.568;11.894;2023-01-05T06:17:22;102133.00;;;6.81;100.00
57859;BME280;49153;45.568;11.894;2023-01-05T06:19:48;102134.09;;;6.74;100.00
57859;BME280;49153;45.568;11.894;2023-01-05T06:22:13;102141.16;;;6.72;100.00
57859;BME280;49153;45.568;11.894;2023-01-05T06:24:39;102141.16;;;6.72;100.00
57859;BME280;49153;45.568;11.894;2023-01-05T06:27:04;102144.72;;;6.71;100.00
57859;BME280;49153;45.568;11.894;2023-01-05T06:29:30;102141.22;;;6.70;100.00
57859;BME280;49153;45.568;11.894;2023-01-05T06:31:55;102132.50;;;6.70;100.00
57859;BME280;49153;45.568;11.894;2023-01-05T06:34:21;102123.81;;;6.68;100.00
57859;BME280;49153;45.568;11.894;2023-01-05T06:36:46;102137.44;;;6.79;100.00
57859;BME280;49153;45.568;11.894;2023-01-05T06:39:11;102141.06;;;6.75;100.00
57859;BME280;49153;45.568;11.894;2023-01-05T06:41:37;102134.06;;;6.75;100.00
57859;BME280;49153;45.568;11.894;2023-01-05T06:44:02;102146.19;;;6.78;100.00
57859;BME280;49153;45.568;11.894;2023-01-05T06:46:29;102140.88;;;6.81;100.00
57859;BME280;49153;45.568;11.894;2023-01-05T06:48:55;102139.84;;;6.85;100.00
57859;BME280;49153;45.568;11.894;2023-01-05T06:51:21;102134.41;;;6.91;100.00
57859;BME280;49153;45.568;11.894;2023-01-05T06:53:46;102137.81;;;6.93;100.00
57859;BME280;49153;45.568;11.894;2023-01-05T06:56:12;102121.22;;;6.93;100.00
57859;BME280;49153;45.568;11.894;2023-01-05T06:58:37;102121.03;;;6.99;100.00
57859;BME280;49153;45.568;11.894;2023-01-05T07:01:03;102117.53;;;6.98;100.00
57859;BME280;49153;45.568;11.894;2023-01-05T07:03:28;102118.56;;;6.94;100.00
57859;BME280;49153;45.568;11.894;2023-01-05T07:05:53;102128.97;;;6.97;100.00
57859;BME280;49153;45.568;11.894;2023-01-05T07:08:19;102134.91;;;7.02;100.00
57859;BME280;49153;45.568;11.894;2023-01-05T07:10:44;102115.16;;;6.92;100.00
57859;BME280;49153;45.568;11.894;2023-01-05T07:13:10;102126.53;;;6.91;100.00
57859;BME280;49153;45.568;11.894;2023-01-05T07:15:35;102119.34;;;6.98;100.00
57859;BME280;49153;45.568;11.894;2023-01-05T07:18:00;102124.50;;;6.99;100.00
57859;BME280;49153;45.568;11.894;2023-01-05T07:20:26;102124.50;;;6.99;100.00
57859;BME280;49153;45.568;11.894;2023-01-05T07:22:51;102125.03;;;7.09;100.00
57859;BME280;49153;45.568;11.894;2023-01-05T07:25:17;102114.72;;;7.04;100.00
57859;BME280;49153;45.568;11.894;2023-01-05T07:27:42;102119.91;;;7.06;100.00
57859;BME280;49153;45.568;11.894;2023-01-05T07:30:08;102107.16;;;6.95;100.00
57859;BME280;49153;45.568;11.894;2023-01-05T07:32:34;102124.31;;;7.05;100.00
57859;BME280;49153;45.568;11.894;2023-01-05T07:35:00;102131.28;;;7.06;100.00
57859;BME280;49153;45.568;11.894;2023-01-05T07:37:25;102124.50;;;6.99;100.00
57859;BME280;49153;45.568;11.894;2023-01-05T07:39:51;102137.78;;;6.95;100.00
57859;BME280;49153;45.568;11.894;2023-01-05T07:42:16;102140.56;;;6.90;100.00
57859;BME280;49153;45.568;11.894;2023-01-05T07:44:42;102144.84;;;6.93;100.00
57859;BME280;49153;45.568;11.894;2023-01-05T07:47:07;102136.03;;;6.95;100.00
57859;BME280;49153;45.568;11.894;2023-01-05T07:49:33;102122.78;;;6.98;100.00
57859;BME280;49153;45.568;11.894;2023-01-05T07:51:58;102122.59;;;7.04;100.00
57859;BME280;49153;45.568;11.894;2023-01-05T07:54:24;102124.22;;;7.08;100.00
57859;BME280;49153;45.568;11.894;2023-01-05T07:56:51;102124.97;;;7.12;100.00
57859;BME280;49153;45.568;11.894;2023-01-05T07:59:17;102125.00;;;7.10;100.00
57859;BME280;49153;45.568;11.894;2023-01-05T08:01:42;102134.59;;;7.11;100.00
57859;BME280;49153;45.568;11.894;2023-01-05T08:04:08;102133.41;;;7.20;100.00
57859;BME280;49153;45.568;11.894;2023-01-05T08:06:34;102140.22;;;7.26;100.00
57859;BME280;49153;45.568;11.894;2023-01-05T08:08:59;102144.56;;;7.27;100.00
57859;BME280;49153;45.568;11.894;2023-01-05T08:11:44;102140.28;;;7.24;100.00
57859;BME280;49153;45.568;11.894;2023-01-05T08:14:10;102132.53;;;7.19;100.00
57859;BME280;49153;45.568;11.894;2023-01-05T08:16:35;102150.63;;;7.29;100.00
57859;BME280;49153;45.568;11.894;2023-01-05T08:19:01;102141.13;;;7.25;100.00
57859;BME280;49153;45.568;11.894;2023-01-05T08:21:26;102152.31;;;7.30;100.00
57859;BME280;49153;45.568;11.894;2023-01-05T08:23:52;102161.03;;;7.30;100.00
57859;BME280;49153;45.568;11.894;2023-01-05T08:26:20;102156.56;;;7.34;100.00
57859;BME280;49153;45.568;11.894;2023-01-05T08:28:46;102158.91;;;7.41;100.00
57859;BME280;49153;45.568;11.894;2023-01-05T08:31:16;102150.13;;;7.42;100.00
57859;BME280;49153;45.568;11.894;2023-01-05T08:33:43;102155.28;;;7.45;100.00
57859;BME280;49153;45.568;11.894;2023-01-05T08:36:10;102157.94;;;7.44;100.00
57859;BME280;49153;45.568;11.894;2023-01-05T08:38:37;102145.47;;;7.50;100.00
57859;BME280;49153;45.568;11.894;2023-01-05T08:41:03;102140.28;;;7.49;100.00
57859;BME280;49153;45.568;11.894;2023-01-05T08:43:28;102138.53;;;7.48;100.00
57859;BME280;49153;45.568;11.894;2023-01-05T08:45:54;102147.97;;;7.53;100.00
57859;BME280;49153;45.568;11.894;2023-01-05T08:48:19;102141.81;;;7.54;100.00
57859;BME280;49153;45.568;11.894;2023-01-05T08:50:45;102124.50;;;7.49;100.00
57859;BME280;49153;45.568;11.894;2023-01-05T08:53:11;102125.03;;;7.58;100.00
57859;BME280;49153;45.568;11.894;2023-01-05T08:55:36;102130.13;;;7.63;100.00
57859;BME280;49153;45.568;11.894;2023-01-05T08:58:02;102130.78;;;7.68;100.00
57859;BME280;49153;45.568;11.894;2023-01-05T09:00:31;102123.50;;;7.76;100.00
57859;BME280;49153;45.568;11.894;2023-01-05T09:02:57;102120.81;;;7.78;100.00
57859;BME280;49153;45.568;11.894;2023-01-05T09:05:22;102120.75;;;7.79;100.00
57859;BME280;49153;45.568;11.894;2023-01-05T09:07:48;102114.38;;;7.86;100.00
57859;BME280;49153;45.568;11.894;2023-01-05T09:10:13;102120.25;;;7.93;100.00
57859;BME280;49153;45.568;11.894;2023-01-05T09:12:39;102122.88;;;7.93;100.00
57859;BME280;49153;45.568;11.894;2023-01-05T09:15:05;102121.09;;;7.93;100.00
57859;BME280;49153;45.568;11.894;2023-01-05T09:17:31;102131.38;;;7.99;100.00
57859;BME280;49153;45.568;11.894;2023-01-05T09:19:57;102115.50;;;8.02;100.00
57859;BME280;49153;45.568;11.894;2023-01-05T09:22:22;102121.44;;;8.07;100.00
57859;BME280;49153;45.568;11.894;2023-01-05T09:24:48;102130.00;;;8.13;100.00
57859;BME280;49153;45.568;11.894;2023-01-05T09:27:13;102135.03;;;8.19;100.00
57859;BME280;49153;45.568;11.894;2023-01-05T09:29:39;102125.50;;;8.15;100.00
57859;BME280;49153;45.568;11.894;2023-01-05T09:32:05;102130.53;;;8.21;100.00
57859;BME280;49153;45.568;11.894;2023-01-05T09:34:30;102128.53;;;8.27;100.00
57859;BME280;49153;45.568;11.894;2023-01-05T09:36:55;102120.56;;;8.30;100.00
57859;BME280;49153;45.568;11.894;2023-01-05T09:39:21;102131.75;;;8.35;100.00
57859;BME280;49153;45.568;11.894;2023-01-05T09:41:49;102126.44;;;8.37;100.00
57859;BME280;49153;45.568;11.894;2023-01-05T09:44:41;102132.34;;;8.42;100.00
57859;BME280;49153;45.568;11.894;2023-01-05T09:47:21;102142.59;;;8.50;100.00
57859;BME280;49153;45.568;11.894;2023-01-05T09:49:50;102140.72;;;8.52;100.00
57859;BME280;49153;45.568;11.894;2023-01-05T09:52:18;102136.22;;;8.55;100.00
57859;BME280;49153;45.568;11.894;2023-01-05T09:54:45;102133.50;;;8.57;100.00
57859;BME280;49153;45.568;11.894;2023-01-05T09:57:23;102127.28;;;8.59;100.00
57859;BME280;49153;45.568;11.894;2023-01-05T09:59:55;102140.38;;;8.61;100.00
57859;BME280;49153;45.568;11.894;2023-01-05T10:04:54;102134.13;;;8.63;100.00
57859;BME280;49153;45.568;11.894;2023-01-05T10:10:45;102131.91;;;8.74;100.00
57859;BME280;49153;45.568;11.894;2023-01-05T10:13:31;102112.03;;;8.67;100.00
57859;BME280;49153;45.568;11.894;2023-01-05T10:15:58;102123.25;;;8.72;100.00
57859;BME280;49153;45.568;11.894;2023-01-05T10:18:26;102117.84;;;8.75;100.00
57859;BME280;49153;45.568;11.894;2023-01-05T10:29:09;102110.53;;;9.04;100.00
57859;BME280;49153;45.568;11.894;2023-01-05T10:31:51;102115.38;;;9.13;100.00
57859;BME280;49153;45.568;11.894;2023-01-05T10:34:22;102108.19;;;9.16;100.00
57859;BME280;49153;45.568;11.894;2023-01-05T10:43:39;102094.75;;;9.43;100.00
57859;BME280;49153;45.568;11.894;2023-01-05T10:46:09;102093.78;;;9.45;100.00
57859;BME280;49153;45.568;11.894;2023-01-05T10:48:36;102089.53;;;9.41;100.00
57859;BME280;49153;45.568;11.894;2023-01-05T10:51:03;102084.09;;;9.46;100.00
57859;BME280;49153;45.568;11.894;2023-01-05T10:53:33;102086.41;;;9.52;100.00
57859;BME280;49153;45.568;11.894;2023-01-05T10:58:35;102076.47;;;9.58;100.00
57859;BME280;49153;45.568;11.894;2023-01-05T11:01:27;102078.78;;;9.66;100.00
57859;BME280;49153;45.568;11.894;2023-01-05T11:06:29;102080.97;;;9.75;100.00
57859;BME280;49153;45.568;11.894;2023-01-05T11:11:38;102066.88;;;9.76;100.00
57859;BME280;49153;45.568;11.894;2023-01-05T11:14:04;102060.59;;;9.79;100.00
57859;BME280;49153;45.568;11.894;2023-01-05T11:16:33;102064.72;;;9.84;100.00
57859;BME280;49153;45.568;11.894;2023-01-05T11:19:28;102067.34;;;9.84;100.00
57859;BME280;49153;45.568;11.894;2023-01-05T11:21:46;102071.44;;;9.91;100.00
57859;BME280;49153;45.568;11.894;2023-01-05T11:26:51;102063.69;;;9.88;100.00
57859;BME280;49153;45.568;11.894;2023-01-05T11:29:17;102045.22;;;9.88;100.00
57859;BME280;49153;45.568;11.894;2023-01-05T11:36:55;102041.94;;;10.02;100.00
57859;BME280;49153;45.568;11.894;2023-01-05T11:39:31;102044.09;;;10.11;100.00
57859;BME280;49153;45.568;11.894;2023-01-05T11:42:15;102048.22;;;10.18;100.00
57859;BME280;49153;45.568;11.894;2023-01-05T11:44:50;102044.09;;;10.11;100.00
57859;BME280;49153;45.568;11.894;2023-01-05T11:52:53;102032.84;;;10.26;100.00
57859;BME280;49153;45.568;11.894;2023-01-05T11:57:49;102022.50;;;10.40;100.00
57859;BME280;49153;45.568;11.894;2023-01-05T12:00:22;102016.91;;;10.46;100.00
57859;BME280;49153;45.568;11.894;2023-01-05T12:03:15;102028.72;;;10.56;100.00
57859;BME280;49153;45.568;11.894;2023-01-05T12:08:40;102019.53;;;10.64;100.00
57859;BME280;49153;45.568;11.894;2023-01-05T12:13:57;102018.84;;;10.77;98.14
57859;BME280;49153;45.568;11.894;2023-01-05T12:16:48;102015.41;;;10.75;98.84
57859;BME280;49153;45.568;11.894;2023-01-05T12:19:23;102011.91;;;10.92;99.59
57859;BME280;49153;45.568;11.894;2023-01-05T12:30:24;101999.31;;;10.97;97.12
57859;BME280;49153;45.568;11.894;2023-01-05T12:33:09;102009.88;;;10.97;96.61
57859;BME280;49153;45.568;11.894;2023-01-05T12:36:14;102000.56;;;10.90;95.32
57859;BME280;49153;45.568;11.894;2023-01-05T12:52:40;101978.22;;;10.80;95.54
57859;BME280;49153;45.568;11.894;2023-01-05T12:55:27;101971.53;;;10.90;96.14
57859;BME280;49153;45.568;11.894;2023-01-05T12:58:31;101980.84;;;10.97;96.10
57859;BME280;49153;45.568;11.894;2023-01-05T13:00:59;101975.88;;;10.91;94.57
57859;BME280;49153;45.568;11.894;2023-01-05T13:06:19;101981.22;;;10.89;94.30
57859;BME280;49153;45.568;11.894;2023-01-05T13:08:53;101969.44;;;10.79;93.75
57859;BME280;49153;45.568;11.894;2023-01-05T13:11:46;101971.03;;;10.66;93.33
57859;BME280;49153;45.568;11.894;2023-01-05T13:14:23;101978.41;;;10.59;94.37
57859;BME280;49153;45.568;11.894;2023-01-05T13:17:11;101968.41;;;10.66;94.47
57859;BME280;49153;45.568;11.894;2023-01-05T13:19:47;101967.16;;;10.73;94.86
57859;BME280;49153;45.568;11.894;2023-01-05T13:22:32;101960.78;;;10.77;94.87
57859;BME280;49153;45.568;11.894;2023-01-05T13:25:13;101955.44;;;10.62;92.95
57859;BME280;49153;45.568;11.894;2023-01-05T13:27:41;101964.44;;;10.57;93.72
57859;BME280;49153;45.568;11.894;2023-01-05T13:30:14;101951.41;;;10.54;94.19
57859;BME280;49153;45.568;11.894;2023-01-05T13:35:39;101969.00;;;10.71;94.43
57859;BME280;49153;45.568;11.894;2023-01-05T14:22:43;101974.72;;;10.46;93.74
57859;BME280;49153;45.568;11.894;2023-01-05T14:33:53;101995.03;;;10.44;93.88
57859;BME280;49153;45.568;11.894;2023-01-05T14:36:31;101991.53;;;10.44;94.14
57859;BME280;49153;45.568;11.894;2023-01-05T14:38:58;101985.41;;;10.43;93.91
57859;BME280;49153;45.568;11.894;2023-01-05T14:41:27;101993.94;;;10.48;93.98
57859;BME280;49153;45.568;11.894;2023-01-05T14:43:57;101994.84;;;10.47;93.58
57859;BME280;49153;45.568;11.894;2023-01-05T14:46:23;101991.34;;;10.47;93.97
57859;BME280;49153;45.568;11.894;2023-01-05T14:51:22;101996.25;;;10.54;93.71
57859;BME280;49153;45.568;11.894;2023-01-05T14:53:53;101988.59;;;10.50;93.37
57859;BME280;49153;45.568;11.894;2023-01-05T14:56:20;102000.13;;;10.47;93.45
57859;BME280;49153;45.568;11.894;2023-01-05T14:59:00;101997.66;;;10.44;93.68
57859;BME280;49153;45.568;11.894;2023-01-05T15:04:17;102007.19;;;10.47;93.33
57859;BME280;49153;45.568;11.894;2023-01-05T15:15:35;101994.56;;;10.36;93.35
57859;BME280;49153;45.568;11.894;2023-01-05T15:18:26;102000.28;;;10.27;93.13
57859;BME280;49153;45.568;11.894;2023-01-05T15:21:35;102005.72;;;10.24;93.56
57859;BME280;49153;45.568;11.894;2023-01-05T15:26:56;102000.88;;;10.15;93.63
57859;BME280;49153;45.568;11.894;2023-01-05T15:32:23;102018.09;;;10.22;93.92
57859;BME280;49153;45.568;11.894;2023-01-05T15:37:39;102012.22;;;10.17;93.80
57859;BME280;49153;45.568;11.894;2023-01-05T15:40:25;102016.25;;;10.24;94.27
57859;BME280;49153;45.568;11.894;2023-01-05T15:43:00;102021.47;;;10.26;94.09
57859;BME280;49153;45.568;11.894;2023-01-05T15:45:34;101998.91;;;10.20;94.30
57859;BME280;49153;45.568;11.894;2023-01-05T15:48:05;102028.38;;;10.28;94.22
57859;BME280;49153;45.568;11.894;2023-01-05T15:55:58;102024.81;;;10.29;94.11
57859;BME280;49153;45.568;11.894;2023-01-05T15:58:25;102018.09;;;10.22;93.51
57859;BME280;49153;45.568;11.894;2023-01-05T16:01:10;102019.41;;;10.13;93.33
57859;BME280;49153;45.568;11.894;2023-01-05T16:03:37;102014.41;;;10.07;93.79